Time,TemperatureF,DewpointF,PressureIn,WindDirection,WindDirectionDegrees,WindSpeedMPH,WindSpeedGustMPH,Humidity,HourlyPrecipIn,Conditions,Clouds,dailyrainin,SoftwareType,DateUTC
2013-11-24 00:04:00,37.6,31.3,30.04,WSW,250,0.0,0.0,78,0.00,,,0.00,meteobridge,2013-11-24 08:04:00,
2013-11-24 00:09:00,37.6,31.6,30.04,WSW,252,0.0,0.0,79,0.00,,,0.00,meteobridge,2013-11-24 08:09:00,
2013-11-24 00:14:00,37.6,31.6,30.04,SSW,207,0.0,0.0,79,0.00,,,0.00,meteobridge,2013-11-24 08:14:00,
2013-11-24 00:19:00,37.2,31.3,30.04,SSW,207,0.0,0.0,79,0.00,,,0.00,meteobridge,2013-11-24 08:19:00,
2013-11-24 00:25:00,37.2,31.3,30.04,SSW,209,0.0,0.0,79,0.00,,,0.00,meteobridge,2013-11-24 08:25:00,
2013-11-24 00:30:00,37.2,31.3,30.04,SSW,209,0.0,0.0,79,0.00,,,0.00,meteobridge,2013-11-24 08:30:00,
2013-11-24 00:35:00,37.0,30.7,30.04,SSW,209,0.0,0.0,78,0.00,,,0.00,meteobridge,2013-11-24 08:35:00,
2013-11-24 00:40:00,36.7,31.1,30.04,SSW,209,0.0,0.0,80,0.00,,,0.00,meteobridge,2013-11-24 08:40:00,
2013-11-24 00:45:00,36.9,31.3,30.04,SSW,209,0.0,0.0,80,0.00,,,0.00,meteobridge,2013-11-24 08:45:00,
2013-11-24 00:50:00,36.3,30.7,30.04,SSW,209,0.0,0.0,80,0.00,,,0.00,meteobridge,2013-11-24 08:50:00,
2013-11-24 00:56:00,36.3,31.1,30.04,SSW,209,0.0,0.0,81,0.00,,,0.00,meteobridge,2013-11-24 08:56:00,
2013-11-24 01:01:00,36.3,31.1,30.04,SSW,209,0.0,0.0,81,0.00,,,0.00,meteobridge,2013-11-24 09:01:00,
2013-11-24 01:06:00,36.1,30.6,30.04,SSW,209,0.0,0.0,80,0.00,,,0.00,meteobridge,2013-11-24 09:06:00,
2013-11-24 01:11:00,35.8,30.6,30.04,SSW,209,0.0,0.0,81,0.00,,,0.00,meteobridge,2013-11-24 09:11:00,
2013-11-24 01:16:00,36.1,30.9,30.04,SSW,208,0.0,0.0,81,0.00,,,0.00,meteobridge,2013-11-24 09:16:00,
2013-11-24 01:21:00,36.7,31.1,30.04,SSW,209,0.0,0.0,80,0.00,,,0.00,meteobridge,2013-11-24 09:21:00,
2013-11-24 01:27:00,36.5,30.6,30.04,SSW,209,0.0,0.0,79,0.00,,,0.00,meteobridge,2013-11-24 09:27:00,
2013-11-24 01:32:00,36.3,30.7,30.04,SSW,209,0.0,0.0,80,0.00,,,0.00,meteobridge,2013-11-24 09:32:00,
2013-11-24 01:37:00,36.1,30.6,30.04,SSW,209,0.0,0.0,80,0.00,,,0.00,meteobridge,2013-11-24 09:37:00,
2013-11-24 01:42:00,35.8,30.2,30.04,SSW,209,0.0,0.0,80,0.00,,,0.00,meteobridge,2013-11-24 09:42:00,
2013-11-24 01:47:00,35.8,30.6,30.04,SSW,209,0.0,0.0,81,0.00,,,0.00,meteobridge,2013-11-24 09:47:00,
2013-11-24 01:53:00,35.4,30.2,30.04,SSW,209,0.0,0.0,81,0.00,,,0.00,meteobridge,2013-11-24 09:53:00,
2013-11-24 01:58:00,35.2,30.4,30.04,SSW,209,0.0,0.0,82,0.00,,,0.00,meteobridge,2013-11-24 09:58:00,
2013-11-24 02:03:00,35.2,30.4,30.04,SSW,209,0.0,0.0,82,0.00,,,0.00,meteobridge,2013-11-24 10:03:00,
2013-11-24 02:08:00,35.4,30.7,30.05,SSW,209,0.0,0.0,83,0.00,,,0.00,meteobridge,2013-11-24 10:08:00,
2013-11-24 02:13:00,35.8,30.7,30.05,SSW,209,0.0,0.0,82,0.00,,,0.00,meteobridge,2013-11-24 10:13:00,
2013-11-24 02:18:00,35.8,30.7,30.05,SSW,209,0.0,0.0,82,0.00,,,0.00,meteobridge,2013-11-24 10:18:00,
2013-11-24 02:24:00,36.0,30.7,30.05,SSW,209,0.0,0.0,81,0.00,,,0.00,meteobridge,2013-11-24 10:24:00,
2013-11-24 02:29:00,36.0,30.7,30.05,SSW,207,0.0,0.0,81,0.00,,,0.00,meteobridge,2013-11-24 10:29:00,
2013-11-24 02:34:00,35.6,30.4,30.05,SSW,207,0.0,0.0,81,0.00,,,0.00,meteobridge,2013-11-24 10:34:00,
2013-11-24 02:39:00,35.4,30.6,30.06,NW,311,0.9,2.0,82,0.00,,,0.00,meteobridge,2013-11-24 10:39:00,
2013-11-24 02:44:00,35.2,30.4,30.06,NW,323,0.0,0.0,82,0.00,,,0.00,meteobridge,2013-11-24 10:44:00,
2013-11-24 02:49:00,35.4,30.2,30.06,NE,39,0.9,2.0,81,0.00,,,0.00,meteobridge,2013-11-24 10:49:00,
2013-11-24 02:55:00,35.8,30.2,30.06,SSW,209,0.9,0.9,80,0.00,,,0.00,meteobridge,2013-11-24 10:55:00,
2013-11-24 03:00:00,35.8,30.2,30.06,SW,227,0.9,2.0,80,0.00,,,0.00,meteobridge,2013-11-24 11:00:00,
2013-11-24 03:05:00,35.4,30.2,30.06,West,269,0.0,0.9,81,0.00,,,0.00,meteobridge,2013-11-24 11:05:00,
2013-11-24 03:10:00,35.4,30.2,30.06,NNE,26,0.9,4.0,81,0.00,,,0.00,meteobridge,2013-11-24 11:10:00,
2013-11-24 03:15:00,35.6,29.7,30.06,NE,50,2.0,2.0,79,0.00,,,0.00,meteobridge,2013-11-24 11:15:00,
2013-11-24 03:20:00,36.7,29.8,30.06,NE,50,0.0,0.0,76,0.00,,,0.00,meteobridge,2013-11-24 11:20:00,
2013-11-24 03:26:00,36.7,30.2,30.06,NE,50,0.9,2.0,77,0.00,,,0.00,meteobridge,2013-11-24 11:26:00,
2013-11-24 03:31:00,36.0,29.8,30.06,WNW,285,0.9,0.9,78,0.00,,,0.00,meteobridge,2013-11-24 11:31:00,
2013-11-24 03:36:00,35.4,29.3,30.06,WNW,286,0.9,0.9,78,0.00,,,0.00,meteobridge,2013-11-24 11:36:00,
2013-11-24 03:41:00,35.2,29.3,30.05,WNW,286,0.0,0.0,79,0.00,,,0.00,meteobridge,2013-11-24 11:41:00,
2013-11-24 03:46:00,35.1,29.5,30.05,WNW,286,0.0,0.9,80,0.00,,,0.00,meteobridge,2013-11-24 11:46:00,
2013-11-24 03:51:00,35.2,29.7,30.05,WNW,286,0.0,0.0,80,0.00,,,0.00,meteobridge,2013-11-24 11:51:00,
2013-11-24 03:57:00,35.2,29.7,30.05,WNW,285,0.9,0.9,80,0.00,,,0.00,meteobridge,2013-11-24 11:57:00,
2013-11-24 04:02:00,35.4,29.8,30.05,WNW,286,0.0,0.0,80,0.00,,,0.00,meteobridge,2013-11-24 12:02:00,
2013-11-24 04:07:00,35.2,29.7,30.05,WNW,286,0.0,0.0,80,0.00,,,0.00,meteobridge,2013-11-24 12:07:00,
2013-11-24 04:12:00,35.1,29.5,30.05,WNW,285,0.0,0.0,80,0.00,,,0.00,meteobridge,2013-11-24 12:12:00,
2013-11-24 04:17:00,34.9,29.7,30.05,WNW,285,0.0,0.0,81,0.00,,,0.00,meteobridge,2013-11-24 12:17:00,
2013-11-24 04:22:00,34.5,28.9,30.06,WNW,286,0.0,0.0,80,0.00,,,0.00,meteobridge,2013-11-24 12:22:00,
2013-11-24 04:28:00,34.3,29.5,30.06,WNW,285,0.0,0.0,82,0.00,,,0.00,meteobridge,2013-11-24 12:28:00,
2013-11-24 04:33:00,34.5,29.7,30.06,WNW,285,0.9,0.9,82,0.00,,,0.00,meteobridge,2013-11-24 12:33:00,
2013-11-24 04:38:00,34.7,29.8,30.06,WNW,286,0.0,0.0,82,0.00,,,0.00,meteobridge,2013-11-24 12:38:00,
2013-11-24 04:43:00,34.7,29.8,30.06,WNW,285,0.0,0.0,82,0.00,,,0.00,meteobridge,2013-11-24 12:43:00,
2013-11-24 04:48:00,34.9,30.0,30.06,WNW,285,0.9,0.9,82,0.00,,,0.00,meteobridge,2013-11-24 12:48:00,
2013-11-24 04:53:00,34.9,29.7,30.07,WNW,284,0.9,0.9,81,0.00,,,0.00,meteobridge,2013-11-24 12:53:00,
2013-11-24 04:59:00,34.5,29.3,30.07,WNW,284,0.0,0.9,81,0.00,,,0.00,meteobridge,2013-11-24 12:59:00,
2013-11-24 05:04:00,34.2,28.9,30.07,WNW,284,0.0,0.0,81,0.00,,,0.00,meteobridge,2013-11-24 13:04:00,
2013-11-24 05:09:00,34.0,29.1,30.07,WNW,284,0.0,0.0,82,0.00,,,0.00,meteobridge,2013-11-24 13:09:00,
2013-11-24 05:14:00,34.0,29.3,30.07,WNW,284,0.0,0.9,83,0.00,,,0.00,meteobridge,2013-11-24 13:14:00,
2013-11-24 05:19:00,34.3,29.7,30.07,WNW,284,0.0,0.0,83,0.00,,,0.00,meteobridge,2013-11-24 13:19:00,
2013-11-24 05:24:00,34.3,29.5,30.08,WNW,284,0.0,0.9,82,0.00,,,0.00,meteobridge,2013-11-24 13:24:00,
2013-11-24 05:29:00,34.2,29.5,30.08,WNW,284,0.0,0.9,83,0.00,,,0.00,meteobridge,2013-11-24 13:29:00,
2013-11-24 05:35:00,34.0,29.3,30.08,WNW,284,0.0,0.0,83,0.00,,,0.00,meteobridge,2013-11-24 13:35:00,
2013-11-24 05:40:00,33.6,29.3,30.08,WNW,284,0.0,0.9,84,0.00,,,0.00,meteobridge,2013-11-24 13:40:00,
2013-11-24 05:45:00,33.3,28.6,30.08,WNW,284,0.0,0.0,83,0.00,,,0.00,meteobridge,2013-11-24 13:45:00,
2013-11-24 05:50:00,33.1,29.1,30.08,WNW,284,0.0,0.9,85,0.00,,,0.00,meteobridge,2013-11-24 13:50:00,
2013-11-24 05:55:00,33.1,29.1,30.09,WNW,284,0.0,0.0,85,0.00,,,0.00,meteobridge,2013-11-24 13:55:00,
2013-11-24 06:00:00,32.7,28.4,30.09,WNW,284,0.0,0.9,84,0.00,,,0.00,meteobridge,2013-11-24 14:00:00,
2013-11-24 06:06:00,33.1,29.3,30.09,WNW,284,0.0,0.9,86,0.00,,,0.00,meteobridge,2013-11-24 14:06:00,
2013-11-24 06:11:00,33.3,29.5,30.09,WNW,284,0.0,0.0,86,0.00,,,0.00,meteobridge,2013-11-24 14:11:00,
2013-11-24 06:16:00,33.3,29.3,30.09,WNW,285,0.0,0.0,85,0.00,,,0.00,meteobridge,2013-11-24 14:16:00,
2013-11-24 06:21:00,33.1,29.1,30.09,WNW,284,0.0,0.0,85,0.00,,,0.00,meteobridge,2013-11-24 14:21:00,
2013-11-24 06:26:00,33.3,29.5,30.10,WNW,284,0.0,0.0,86,0.00,,,0.00,meteobridge,2013-11-24 14:26:00,
2013-11-24 06:31:00,33.3,29.3,30.10,WNW,284,0.0,0.0,85,0.00,,,0.00,meteobridge,2013-11-24 14:31:00,
2013-11-24 06:37:00,33.1,29.1,30.11,WNW,286,0.0,0.9,85,0.00,,,0.00,meteobridge,2013-11-24 14:37:00,
2013-11-24 06:42:00,32.7,28.8,30.11,WNW,284,0.0,0.0,85,0.00,,,0.00,meteobridge,2013-11-24 14:42:00,
2013-11-24 06:47:00,32.7,28.9,30.11,West,277,0.9,0.9,86,0.00,,,0.00,meteobridge,2013-11-24 14:47:00,
2013-11-24 06:52:00,32.5,28.8,30.11,West,277,0.0,0.0,86,0.00,,,0.00,meteobridge,2013-11-24 14:52:00,
2013-11-24 06:57:00,32.5,28.8,30.11,West,277,0.0,0.0,86,0.00,,,0.00,meteobridge,2013-11-24 14:57:00,
2013-11-24 07:02:00,32.5,28.8,30.11,West,277,0.0,0.0,86,0.00,,,0.00,meteobridge,2013-11-24 15:02:00,
2013-11-24 07:08:00,32.5,28.8,30.14,West,277,0.0,0.0,86,0.00,,,0.00,meteobridge,2013-11-24 15:08:00,
2013-11-24 07:13:00,32.9,29.1,30.14,West,277,0.0,0.0,86,0.00,,,0.00,meteobridge,2013-11-24 15:13:00,
2013-11-24 07:18:00,33.3,29.5,30.14,West,277,0.9,0.9,86,0.00,,,0.00,meteobridge,2013-11-24 15:18:00,
2013-11-24 07:23:00,33.4,29.5,30.14,West,277,0.9,0.9,85,0.00,,,0.00,meteobridge,2013-11-24 15:23:00,
2013-11-24 07:28:00,33.4,29.5,30.14,West,277,0.0,0.0,85,0.00,,,0.00,meteobridge,2013-11-24 15:28:00,
2013-11-24 07:33:00,33.6,29.7,30.14,West,277,0.0,0.0,85,0.00,,,0.00,meteobridge,2013-11-24 15:33:00,
2013-11-24 07:39:00,34.0,30.0,30.12,West,277,0.9,0.9,85,0.00,,,0.00,meteobridge,2013-11-24 15:39:00,
2013-11-24 07:44:00,34.3,30.0,30.12,West,277,0.0,0.9,84,0.00,,,0.00,meteobridge,2013-11-24 15:44:00,
2013-11-24 07:49:00,34.9,30.2,30.12,West,277,0.0,0.9,83,0.00,,,0.00,meteobridge,2013-11-24 15:49:00,
2013-11-24 07:54:00,35.8,31.1,30.12,West,277,0.0,0.0,83,0.00,,,0.00,meteobridge,2013-11-24 15:54:00,
2013-11-24 07:59:00,36.3,31.1,30.12,West,277,0.0,0.0,81,0.00,,,0.00,meteobridge,2013-11-24 15:59:00,
2013-11-24 08:04:00,37.0,31.5,30.12,West,277,0.0,0.0,80,0.00,,,0.00,meteobridge,2013-11-24 16:04:00,
2013-11-24 08:10:00,38.7,32.0,30.12,SSW,210,0.0,0.9,77,0.00,,,0.00,meteobridge,2013-11-24 16:10:00,
2013-11-24 08:15:00,39.4,32.2,30.12,SSW,210,0.0,0.0,75,0.00,,,0.00,meteobridge,2013-11-24 16:15:00,
2013-11-24 08:20:00,39.7,31.8,30.12,SSW,211,0.0,0.0,73,0.00,,,0.00,meteobridge,2013-11-24 16:20:00,
2013-11-24 08:25:00,40.3,32.4,30.13,SW,218,0.0,0.9,73,0.00,,,0.00,meteobridge,2013-11-24 16:25:00,
2013-11-24 08:30:00,41.7,33.1,30.13,SW,218,0.0,0.0,71,0.00,,,0.00,meteobridge,2013-11-24 16:30:00,
2013-11-24 08:35:00,42.8,32.9,30.13,SW,218,0.0,0.0,68,0.00,,,0.00,meteobridge,2013-11-24 16:35:00,
2013-11-24 08:41:00,44.1,33.8,30.13,SW,217,0.0,0.0,67,0.00,,,0.00,meteobridge,2013-11-24 16:41:00,
2013-11-24 08:46:00,45.5,33.6,30.13,SW,218,0.0,0.0,63,0.00,,,0.00,meteobridge,2013-11-24 16:46:00,
2013-11-24 08:51:00,45.9,33.3,30.13,SW,220,0.9,0.9,61,0.00,,,0.00,meteobridge,2013-11-24 16:51:00,
2013-11-24 08:56:00,45.3,33.1,30.13,SW,219,0.0,0.9,62,0.00,,,0.00,meteobridge,2013-11-24 16:56:00,
2013-11-24 09:01:00,45.5,33.6,30.13,SW,221,0.0,0.9,63,0.00,,,0.00,meteobridge,2013-11-24 17:01:00,
2013-11-24 09:07:00,46.0,34.2,30.14,West,273,0.0,0.9,63,0.00,,,0.00,meteobridge,2013-11-24 17:07:00,
2013-11-24 09:12:00,46.8,33.6,30.14,West,269,0.9,0.9,60,0.00,,,0.00,meteobridge,2013-11-24 17:12:00,
2013-11-24 09:17:00,47.7,34.0,30.14,West,277,0.0,2.0,59,0.00,,,0.00,meteobridge,2013-11-24 17:17:00,
2013-11-24 09:22:00,47.7,33.6,30.14,West,277,0.0,0.9,58,0.00,,,0.00,meteobridge,2013-11-24 17:22:00,
2013-11-24 09:27:00,48.7,34.2,30.14,West,277,0.0,0.9,57,0.00,,,0.00,meteobridge,2013-11-24 17:27:00,
2013-11-24 09:32:00,50.2,34.7,30.14,West,277,0.0,0.0,55,0.00,,,0.00,meteobridge,2013-11-24 17:32:00,
2013-11-24 09:38:00,50.7,34.7,30.14,SSW,205,0.9,0.9,54,0.00,,,0.00,meteobridge,2013-11-24 17:38:00,
2013-11-24 09:43:00,50.5,34.5,30.14,South,184,0.9,2.0,54,0.00,,,0.00,meteobridge,2013-11-24 17:43:00,
2013-11-24 09:48:00,50.7,34.2,30.14,SW,225,0.9,2.0,53,0.00,,,0.00,meteobridge,2013-11-24 17:48:00,
2013-11-24 09:53:00,51.1,35.1,30.15,SSE,163,2.0,2.0,54,0.00,,,0.00,meteobridge,2013-11-24 17:53:00,
2013-11-24 09:58:00,52.0,35.8,30.15,SSE,167,0.9,0.9,54,0.00,,,0.00,meteobridge,2013-11-24 17:58:00,
2013-11-24 10:03:00,52.9,35.2,30.15,SE,143,0.9,2.0,51,0.00,,,0.00,meteobridge,2013-11-24 18:03:00,
2013-11-24 10:08:00,52.9,34.7,30.15,SSW,198,2.0,2.0,50,0.00,,,0.00,meteobridge,2013-11-24 18:08:00,
2013-11-24 10:14:00,52.9,35.2,30.15,SSE,167,0.9,2.0,51,0.00,,,0.00,meteobridge,2013-11-24 18:14:00,
2013-11-24 10:19:00,53.4,35.2,30.15,South,188,0.0,0.9,50,0.00,,,0.00,meteobridge,2013-11-24 18:19:00,
2013-11-24 10:24:00,54.0,35.8,30.15,WSW,254,0.9,2.0,50,0.00,,,0.00,meteobridge,2013-11-24 18:24:00,
2013-11-24 10:29:00,54.1,35.4,30.15,SSE,156,0.0,2.0,49,0.00,,,0.00,meteobridge,2013-11-24 18:29:00,
2013-11-24 10:34:00,54.9,35.6,30.15,SW,223,2.0,2.0,48,0.00,,,0.00,meteobridge,2013-11-24 18:34:00,
2013-11-24 10:40:00,55.2,36.0,30.15,SSW,200,0.9,0.9,48,0.00,,,0.00,meteobridge,2013-11-24 18:40:00,
2013-11-24 10:45:00,55.8,35.2,30.15,SSE,148,0.0,0.9,46,0.00,,,0.00,meteobridge,2013-11-24 18:45:00,
2013-11-24 10:50:00,56.3,35.8,30.15,SSE,164,2.0,2.9,46,0.00,,,0.00,meteobridge,2013-11-24 18:50:00,
2013-11-24 10:55:00,56.3,35.8,30.14,WSW,238,0.9,2.0,46,0.00,,,0.00,meteobridge,2013-11-24 18:55:00,
2013-11-24 11:00:00,56.3,35.8,30.14,South,184,2.9,2.9,46,0.00,,,0.00,meteobridge,2013-11-24 19:00:00,
2013-11-24 11:05:00,56.5,36.0,30.14,SE,146,2.0,2.9,46,0.00,,,0.00,meteobridge,2013-11-24 19:05:00,
2013-11-24 11:10:00,56.8,35.8,30.14,SSE,154,0.9,2.9,45,0.00,,,0.00,meteobridge,2013-11-24 19:10:00,
2013-11-24 11:16:00,56.8,35.8,30.14,West,268,0.9,2.0,45,0.00,,,0.00,meteobridge,2013-11-24 19:16:00,
2013-11-24 11:21:00,57.4,36.7,30.14,WSW,257,0.9,2.0,46,0.00,,,0.00,meteobridge,2013-11-24 19:21:00,
2013-11-24 11:26:00,58.3,36.5,30.13,SSE,160,2.0,2.0,44,0.00,,,0.00,meteobridge,2013-11-24 19:26:00,
2013-11-24 11:31:00,58.8,36.3,30.13,ESE,119,0.9,2.0,43,0.00,,,0.00,meteobridge,2013-11-24 19:31:00,
2013-11-24 11:36:00,59.0,36.0,30.13,SSW,196,0.9,4.0,42,0.00,,,0.00,meteobridge,2013-11-24 19:36:00,
2013-11-24 11:41:00,59.2,36.1,30.13,SW,225,2.0,2.9,42,0.00,,,0.00,meteobridge,2013-11-24 19:41:00,
2013-11-24 11:47:00,59.7,36.5,30.13,SSW,198,0.9,2.0,42,0.00,,,0.00,meteobridge,2013-11-24 19:47:00,
2013-11-24 11:52:00,59.7,36.0,30.12,SE,146,0.9,2.9,41,0.00,,,0.00,meteobridge,2013-11-24 19:52:00,
2013-11-24 11:57:00,59.7,36.0,30.12,WSW,244,4.0,4.0,41,0.00,,,0.00,meteobridge,2013-11-24 19:57:00,
2013-11-24 12:02:00,59.9,36.1,30.12,SW,223,0.9,4.0,41,0.00,,,0.00,meteobridge,2013-11-24 20:02:00,
2013-11-24 12:07:00,60.3,37.0,30.11,SW,225,2.0,2.0,42,0.00,,,0.00,meteobridge,2013-11-24 20:07:00,
2013-11-24 12:12:00,60.4,36.7,30.11,SSW,198,2.0,4.0,41,0.00,,,0.00,meteobridge,2013-11-24 20:12:00,
2013-11-24 12:17:00,61.3,36.9,30.11,WSW,242,2.0,4.0,40,0.00,,,0.00,meteobridge,2013-11-24 20:17:00,
2013-11-24 12:23:00,61.5,37.0,30.11,SSE,156,0.9,2.9,40,0.00,,,0.00,meteobridge,2013-11-24 20:23:00,
2013-11-24 12:28:00,61.9,36.7,30.11,ESE,108,2.0,4.0,39,0.00,,,0.00,meteobridge,2013-11-24 20:28:00,
2013-11-24 12:33:00,62.1,37.4,30.11,SE,128,0.9,2.9,40,0.00,,,0.00,meteobridge,2013-11-24 20:33:00,
2013-11-24 12:38:00,62.4,37.2,30.11,South,186,2.0,4.0,39,0.00,,,0.00,meteobridge,2013-11-24 20:38:00,
2013-11-24 12:43:00,62.2,37.6,30.11,West,268,2.0,2.9,40,0.00,,,0.00,meteobridge,2013-11-24 20:43:00,
2013-11-24 12:49:00,62.4,38.5,30.11,South,180,0.9,2.9,41,0.00,,,0.00,meteobridge,2013-11-24 20:49:00,
2013-11-24 12:54:00,62.6,37.9,30.10,West,265,2.0,4.0,40,0.00,,,0.00,meteobridge,2013-11-24 20:54:00,
2013-11-24 12:59:00,62.8,38.7,30.10,SSE,163,2.0,2.0,41,0.00,,,0.00,meteobridge,2013-11-24 20:59:00,
2013-11-24 13:04:00,63.1,39.0,30.10,SW,227,2.9,4.0,41,0.00,,,0.00,meteobridge,2013-11-24 21:04:00,
2013-11-24 13:09:00,63.3,39.2,30.10,South,171,2.0,4.9,41,0.00,,,0.00,meteobridge,2013-11-24 21:09:00,
2013-11-24 13:14:00,63.1,39.0,30.10,SSW,195,2.0,4.9,41,0.00,,,0.00,meteobridge,2013-11-24 21:14:00,
2013-11-24 13:20:00,63.7,39.6,30.10,WSW,249,0.9,0.9,41,0.00,,,0.00,meteobridge,2013-11-24 21:20:00,
2013-11-24 13:25:00,63.7,40.1,30.10,WSW,242,0.9,2.9,42,0.00,,,0.00,meteobridge,2013-11-24 21:25:00,
2013-11-24 13:30:00,63.9,39.7,30.10,SW,222,2.0,4.0,41,0.00,,,0.00,meteobridge,2013-11-24 21:30:00,
2013-11-24 13:35:00,64.0,39.9,30.10,South,175,0.0,2.0,41,0.00,,,0.00,meteobridge,2013-11-24 21:35:00,
2013-11-24 13:40:00,64.8,40.5,30.09,South,169,2.0,4.0,41,0.00,,,0.00,meteobridge,2013-11-24 21:40:00,
2013-11-24 13:46:00,64.9,40.1,30.09,SSE,164,2.0,2.0,40,0.00,,,0.00,meteobridge,2013-11-24 21:46:00,
2013-11-24 13:51:00,65.1,39.6,30.09,South,171,4.0,4.9,39,0.00,,,0.00,meteobridge,2013-11-24 21:51:00,
2013-11-24 13:56:00,65.1,40.3,30.09,SSE,156,0.0,2.0,40,0.00,,,0.00,meteobridge,2013-11-24 21:56:00,
2013-11-24 14:01:00,65.5,39.2,30.09,SW,227,0.0,2.0,38,0.00,,,0.00,meteobridge,2013-11-24 22:01:00,
2013-11-24 14:06:00,65.8,39.6,30.09,West,277,2.0,2.0,38,0.00,,,0.00,meteobridge,2013-11-24 22:06:00,
2013-11-24 14:11:00,65.5,39.9,30.09,West,269,0.9,2.0,39,0.00,,,0.00,meteobridge,2013-11-24 22:11:00,
2013-11-24 14:17:00,65.8,39.6,30.09,West,271,0.9,2.9,38,0.00,,,0.00,meteobridge,2013-11-24 22:17:00,
2013-11-24 14:22:00,65.7,40.1,30.09,SSW,202,2.0,4.0,39,0.00,,,0.00,meteobridge,2013-11-24 22:22:00,
2013-11-24 14:27:00,65.5,39.9,30.09,SSW,211,0.0,4.0,39,0.00,,,0.00,meteobridge,2013-11-24 22:27:00,
2013-11-24 14:32:00,65.5,40.5,30.09,SSW,192,2.0,2.9,40,0.00,,,0.00,meteobridge,2013-11-24 22:32:00,
2013-11-24 14:37:00,65.8,40.8,30.09,WSW,246,4.0,4.9,40,0.00,,,0.00,meteobridge,2013-11-24 22:37:00,
2013-11-24 14:42:00,65.7,41.4,30.09,WSW,240,2.9,6.0,41,0.00,,,0.00,meteobridge,2013-11-24 22:42:00,
2013-11-24 14:48:00,65.8,40.8,30.09,South,182,4.0,4.0,40,0.00,,,0.00,meteobridge,2013-11-24 22:48:00,
2013-11-24 14:53:00,65.7,40.6,30.09,West,281,4.0,6.0,40,0.00,,,0.00,meteobridge,2013-11-24 22:53:00,
2013-11-24 14:58:00,65.1,40.3,30.09,SW,225,4.0,10.1,40,0.00,,,0.00,meteobridge,2013-11-24 22:58:00,
2013-11-24 15:03:00,65.5,40.5,30.09,SW,232,0.9,4.0,40,0.00,,,0.00,meteobridge,2013-11-24 23:03:00,
2013-11-24 15:08:00,65.7,40.1,30.10,WSW,256,0.9,2.9,39,0.00,,,0.00,meteobridge,2013-11-24 23:08:00,
2013-11-24 15:14:00,65.5,40.5,30.10,SW,223,0.9,4.0,40,0.00,,,0.00,meteobridge,2013-11-24 23:14:00,
2013-11-24 15:19:00,65.1,40.3,30.10,South,186,2.9,6.0,40,0.00,,,0.00,meteobridge,2013-11-24 23:19:00,
2013-11-24 15:24:00,64.8,39.9,30.10,SW,223,2.9,4.9,40,0.00,,,0.00,meteobridge,2013-11-24 23:24:00,
2013-11-24 15:29:00,64.6,39.7,30.10,SW,233,6.0,8.9,40,0.00,,,0.00,meteobridge,2013-11-24 23:29:00,
2013-11-24 15:34:00,64.6,39.7,30.10,SW,219,2.9,2.9,40,0.00,,,0.00,meteobridge,2013-11-24 23:34:00,
2013-11-24 15:39:00,64.8,39.9,30.10,SSW,206,0.9,6.9,40,0.00,,,0.00,meteobridge,2013-11-24 23:39:00,
2013-11-24 15:44:00,64.2,39.4,30.10,SW,217,4.9,6.0,40,0.00,,,0.00,meteobridge,2013-11-24 23:44:00,
2013-11-24 15:49:00,64.2,39.4,30.10,SSW,204,2.9,8.9,40,0.00,,,0.00,meteobridge,2013-11-24 23:49:00,
2013-11-24 15:54:00,64.0,39.2,30.10,South,186,2.0,4.0,40,0.00,,,0.00,meteobridge,2013-11-24 23:54:00,
2013-11-24 15:59:00,64.0,36.5,30.10,SSE,167,0.9,10.1,36,0.00,,,0.00,meteobridge,2013-11-24 23:59:00,
2013-11-24 16:05:00,63.7,36.9,30.10,SW,221,0.9,4.0,37,0.00,,,0.00,meteobridge,2013-11-25 00:05:00,
2013-11-24 16:10:00,63.7,36.9,30.11,SSE,162,0.9,2.9,37,0.00,,,0.00,meteobridge,2013-11-25 00:10:00,
2013-11-24 16:15:00,63.5,37.4,30.11,SSE,163,0.0,2.0,38,0.00,,,0.00,meteobridge,2013-11-25 00:15:00,
2013-11-24 16:20:00,63.5,40.6,30.11,SSW,207,2.9,4.0,43,0.00,,,0.00,meteobridge,2013-11-25 00:20:00,
2013-11-24 16:25:00,63.0,43.0,30.11,SSW,195,2.0,2.0,48,0.00,,,0.00,meteobridge,2013-11-25 00:25:00,
2013-11-24 16:31:00,62.4,44.6,30.11,WSW,249,2.0,2.9,52,0.00,,,0.00,meteobridge,2013-11-25 00:31:00,
2013-11-24 16:36:00,61.2,45.3,30.11,SW,236,4.9,4.9,56,0.00,,,0.00,meteobridge,2013-11-25 00:36:00,
2013-11-24 16:41:00,59.7,45.3,30.11,WSW,251,0.9,4.0,59,0.00,,,0.00,meteobridge,2013-11-25 00:41:00,
2013-11-24 16:46:00,58.8,45.0,30.11,SW,219,2.0,4.0,60,0.00,,,0.00,meteobridge,2013-11-25 00:46:00,
2013-11-24 16:52:00,58.3,45.0,30.12,SW,221,0.0,0.9,61,0.00,,,0.00,meteobridge,2013-11-25 00:52:00,
2013-11-24 16:57:00,57.9,44.6,30.12,SW,221,0.0,0.0,61,0.00,,,0.00,meteobridge,2013-11-25 00:57:00,
2013-11-24 17:02:00,57.2,44.8,30.12,SW,221,0.0,0.0,63,0.00,,,0.00,meteobridge,2013-11-25 01:02:00,
2013-11-24 17:07:00,56.7,45.0,30.12,SW,221,0.0,0.0,65,0.00,,,0.00,meteobridge,2013-11-25 01:07:00,
2013-11-24 17:12:00,55.9,44.8,30.12,SW,221,0.0,0.0,66,0.00,,,0.00,meteobridge,2013-11-25 01:12:00,
2013-11-24 17:17:00,55.6,44.8,30.12,SW,221,0.0,0.0,67,0.00,,,0.00,meteobridge,2013-11-25 01:17:00,
2013-11-24 17:23:00,55.0,44.6,30.13,SW,221,0.0,0.0,68,0.00,,,0.00,meteobridge,2013-11-25 01:23:00,
2013-11-24 17:28:00,54.7,44.2,30.13,SW,221,0.0,0.0,68,0.00,,,0.00,meteobridge,2013-11-25 01:28:00,
2013-11-24 17:33:00,54.1,44.2,30.13,SW,221,0.0,0.0,69,0.00,,,0.00,meteobridge,2013-11-25 01:33:00,
2013-11-24 17:38:00,53.6,43.7,30.13,SW,221,0.0,0.0,69,0.00,,,0.00,meteobridge,2013-11-25 01:38:00,
2013-11-24 17:43:00,53.1,43.5,30.13,SW,221,0.0,0.0,70,0.00,,,0.00,meteobridge,2013-11-25 01:43:00,
2013-11-24 17:48:00,52.5,43.3,30.13,SW,221,0.0,0.0,71,0.00,,,0.00,meteobridge,2013-11-25 01:48:00,
2013-11-24 17:54:00,52.2,43.3,30.14,SW,221,0.0,0.0,72,0.00,,,0.00,meteobridge,2013-11-25 01:54:00,
2013-11-24 17:59:00,51.6,43.0,30.14,SW,221,0.0,0.0,72,0.00,,,0.00,meteobridge,2013-11-25 01:59:00,
2013-11-24 18:04:00,50.9,42.3,30.14,SW,221,0.0,0.0,72,0.00,,,0.00,meteobridge,2013-11-25 02:04:00,
2013-11-24 18:09:00,50.4,42.8,30.14,SW,221,0.0,0.0,75,0.00,,,0.00,meteobridge,2013-11-25 02:09:00,
2013-11-24 18:14:00,50.2,42.6,30.14,SW,221,0.0,0.0,75,0.00,,,0.00,meteobridge,2013-11-25 02:14:00,
2013-11-24 18:19:00,49.6,42.4,30.14,SW,221,0.0,0.0,76,0.00,,,0.00,meteobridge,2013-11-25 02:19:00,
2013-11-24 18:25:00,49.3,42.4,30.15,SW,221,0.0,0.0,77,0.00,,,0.00,meteobridge,2013-11-25 02:25:00,
2013-11-24 18:30:00,48.9,42.1,30.15,SW,221,0.0,0.0,77,0.00,,,0.00,meteobridge,2013-11-25 02:30:00,
2013-11-24 18:35:00,48.6,42.1,30.15,SW,221,0.9,0.9,78,0.00,,,0.00,meteobridge,2013-11-25 02:35:00,
2013-11-24 18:40:00,48.6,42.1,30.16,SW,221,0.0,0.0,78,0.00,,,0.00,meteobridge,2013-11-25 02:40:00,
2013-11-24 18:45:00,48.4,42.3,30.16,SW,221,0.0,0.0,79,0.00,,,0.00,meteobridge,2013-11-25 02:45:00,
2013-11-24 18:50:00,48.0,42.1,30.16,SW,221,0.9,0.9,80,0.00,,,0.00,meteobridge,2013-11-25 02:50:00,
2013-11-24 18:56:00,47.8,41.9,30.16,SW,221,0.0,0.0,80,0.00,,,0.00,meteobridge,2013-11-25 02:56:00,
2013-11-24 19:01:00,47.5,41.5,30.16,SW,221,0.0,0.0,80,0.00,,,0.00,meteobridge,2013-11-25 03:01:00,
2013-11-24 19:06:00,46.8,41.0,30.16,SW,221,0.0,0.0,80,0.00,,,0.00,meteobridge,2013-11-25 03:06:00,
2013-11-24 19:11:00,46.2,41.0,30.16,SW,221,0.0,0.0,82,0.00,,,0.00,meteobridge,2013-11-25 03:11:00,
2013-11-24 19:16:00,46.0,41.2,30.16,SW,221,0.0,0.0,83,0.00,,,0.00,meteobridge,2013-11-25 03:16:00,
2013-11-24 19:22:00,46.0,41.5,30.16,SW,221,0.0,0.9,84,0.00,,,0.00,meteobridge,2013-11-25 03:22:00,
2013-11-24 19:27:00,45.9,41.0,30.16,SW,221,0.0,0.0,83,0.00,,,0.00,meteobridge,2013-11-25 03:27:00,
2013-11-24 19:32:00,45.5,40.6,30.16,SW,221,0.0,0.0,83,0.00,,,0.00,meteobridge,2013-11-25 03:32:00,
2013-11-24 19:37:00,45.3,41.0,30.17,SW,221,0.9,0.9,85,0.00,,,0.00,meteobridge,2013-11-25 03:37:00,
2013-11-24 19:42:00,45.5,41.0,30.17,SW,221,0.0,0.0,84,0.00,,,0.00,meteobridge,2013-11-25 03:42:00,
2013-11-24 19:47:00,45.1,40.6,30.17,SW,221,0.0,0.0,84,0.00,,,0.00,meteobridge,2013-11-25 03:47:00,
2013-11-24 19:53:00,45.0,40.5,30.17,SW,221,0.0,0.0,84,0.00,,,0.00,meteobridge,2013-11-25 03:53:00,
2013-11-24 19:58:00,45.0,41.0,30.17,SW,221,0.0,0.9,86,0.00,,,0.00,meteobridge,2013-11-25 03:58:00,
2013-11-24 20:03:00,44.8,40.5,30.17,SW,221,0.0,0.0,85,0.00,,,0.00,meteobridge,2013-11-25 04:03:00,
2013-11-24 20:08:00,44.4,40.3,30.17,SW,221,0.0,0.0,85,0.00,,,0.00,meteobridge,2013-11-25 04:08:00,
2013-11-24 20:13:00,44.2,40.3,30.17,SW,221,0.0,0.0,86,0.00,,,0.00,meteobridge,2013-11-25 04:13:00,
2013-11-24 20:18:00,43.9,40.3,30.17,SW,221,0.0,0.9,87,0.00,,,0.00,meteobridge,2013-11-25 04:18:00,
2013-11-24 20:24:00,43.5,39.6,30.17,SW,221,0.9,0.9,86,0.00,,,0.00,meteobridge,2013-11-25 04:24:00,
2013-11-24 20:29:00,43.5,39.9,30.17,SW,221,0.0,0.0,87,0.00,,,0.00,meteobridge,2013-11-25 04:29:00,
2013-11-24 20:34:00,43.5,40.3,30.17,SW,221,0.0,0.0,88,0.00,,,0.00,meteobridge,2013-11-25 04:34:00,
2013-11-24 20:39:00,43.7,40.5,30.17,SW,221,0.0,0.0,88,0.00,,,0.00,meteobridge,2013-11-25 04:39:00,
2013-11-24 20:44:00,43.5,40.3,30.17,SW,221,0.0,0.0,88,0.00,,,0.00,meteobridge,2013-11-25 04:44:00,
2013-11-24 20:49:00,43.2,39.6,30.17,SW,221,0.0,0.0,87,0.00,,,0.00,meteobridge,2013-11-25 04:49:00,
2013-11-24 20:55:00,43.2,39.9,30.18,SW,221,0.0,0.0,88,0.00,,,0.00,meteobridge,2013-11-25 04:55:00,
2013-11-24 21:00:00,42.8,39.6,30.18,SW,221,0.0,0.0,88,0.00,,,0.00,meteobridge,2013-11-25 05:00:00,
2013-11-24 21:01:00,42.8,39.6,30.18,SW,221,0.0,0.0,88,0.00,,,0.00,meteobridge,2013-11-25 05:01:00,
2013-11-24 21:02:00,42.6,39.4,30.18,SW,221,0.0,0.0,88,0.00,,,0.00,meteobridge,2013-11-25 05:02:00,
2013-11-24 21:03:00,42.6,39.4,30.18,SW,221,0.0,0.0,88,0.00,,,0.00,meteobridge,2013-11-25 05:03:00,
2013-11-24 21:05:00,42.4,39.2,30.18,SW,221,0.0,0.0,88,0.00,,,0.00,meteobridge,2013-11-25 05:05:00,
2013-11-24 21:06:00,42.4,39.2,30.18,SW,221,0.0,0.0,88,0.00,,,0.00,meteobridge,2013-11-25 05:06:00,
2013-11-24 21:11:00,42.3,39.0,30.18,SW,221,0.0,0.0,88,0.00,,,0.00,meteobridge,2013-11-25 05:11:00,
2013-11-24 21:16:00,41.9,38.8,30.18,SW,221,0.0,0.0,89,0.00,,,0.00,meteobridge,2013-11-25 05:16:00,
2013-11-24 21:22:00,41.7,38.7,30.18,SW,221,0.0,0.0,89,0.00,,,0.00,meteobridge,2013-11-25 05:22:00,
2013-11-24 21:26:00,41.7,39.0,30.18,SW,221,0.0,0.0,90,0.00,,,0.00,meteobridge,2013-11-25 05:26:00,
2013-11-24 21:31:00,41.7,39.0,30.18,SW,221,0.0,0.0,90,0.00,,,0.00,meteobridge,2013-11-25 05:31:00,
2013-11-24 21:36:00,41.4,38.7,30.18,SW,221,0.0,0.0,90,0.00,,,0.00,meteobridge,2013-11-25 05:36:00,
2013-11-24 21:41:00,41.4,38.7,30.18,SW,221,0.0,0.0,90,0.00,,,0.00,meteobridge,2013-11-25 05:41:00,
2013-11-24 21:46:00,41.2,38.5,30.18,SW,221,0.0,0.0,90,0.00,,,0.00,meteobridge,2013-11-25 05:46:00,
2013-11-24 21:52:00,41.2,38.5,30.18,SW,221,0.0,0.0,90,0.00,,,0.00,meteobridge,2013-11-25 05:52:00,
2013-11-24 21:57:00,40.8,38.5,30.18,SW,221,0.0,0.0,91,0.00,,,0.00,meteobridge,2013-11-25 05:57:00,
2013-11-24 22:02:00,40.8,38.5,30.18,SW,221,0.0,0.0,91,0.00,,,0.00,meteobridge,2013-11-25 06:02:00,
2013-11-24 22:07:00,40.6,38.3,30.18,SW,221,0.0,0.0,91,0.00,,,0.00,meteobridge,2013-11-25 06:07:00,
2013-11-24 22:12:00,40.6,38.3,30.18,SW,221,0.0,0.0,91,0.00,,,0.00,meteobridge,2013-11-25 06:12:00,
2013-11-24 22:17:00,40.6,38.3,30.18,SW,221,2.0,2.0,91,0.00,,,0.00,meteobridge,2013-11-25 06:17:00,
2013-11-24 22:22:00,40.8,38.5,30.19,SW,221,0.0,0.0,91,0.00,,,0.00,meteobridge,2013-11-25 06:22:00,
2013-11-24 22:28:00,40.8,38.5,30.19,SW,221,0.0,0.9,91,0.00,,,0.00,meteobridge,2013-11-25 06:28:00,
2013-11-24 22:33:00,40.8,38.1,30.19,SW,221,0.0,0.0,90,0.00,,,0.00,meteobridge,2013-11-25 06:33:00,
2013-11-24 22:38:00,40.6,38.3,30.19,SW,221,0.0,0.0,91,0.00,,,0.00,meteobridge,2013-11-25 06:38:00,
2013-11-24 22:43:00,40.5,37.8,30.19,SW,221,0.0,0.0,90,0.00,,,0.00,meteobridge,2013-11-25 06:43:00,
2013-11-24 22:48:00,40.3,37.6,30.19,SW,221,0.0,0.0,90,0.00,,,0.00,meteobridge,2013-11-25 06:48:00,
2013-11-24 22:53:00,39.7,37.0,30.19,SW,221,0.0,0.0,90,0.00,,,0.00,meteobridge,2013-11-25 06:53:00,
2013-11-24 22:59:00,39.6,37.2,30.19,SW,221,0.0,0.0,91,0.00,,,0.00,meteobridge,2013-11-25 06:59:00,
2013-11-24 23:04:00,39.6,37.4,30.19,SW,221,0.0,0.0,92,0.00,,,0.00,meteobridge,2013-11-25 07:04:00,
2013-11-24 23:09:00,39.7,37.6,30.19,SW,221,0.0,0.0,92,0.00,,,0.00,meteobridge,2013-11-25 07:09:00,
2013-11-24 23:14:00,39.6,37.4,30.19,SW,221,0.0,0.0,92,0.00,,,0.00,meteobridge,2013-11-25 07:14:00,
2013-11-24 23:19:00,39.6,37.4,30.19,SW,221,0.0,0.9,92,0.00,,,0.00,meteobridge,2013-11-25 07:19:00,
2013-11-24 23:24:00,39.4,37.2,30.19,SW,221,0.0,0.0,92,0.00,,,0.00,meteobridge,2013-11-25 07:24:00,
2013-11-24 23:30:00,39.4,37.2,30.19,SW,221,0.0,0.0,92,0.00,,,0.00,meteobridge,2013-11-25 07:30:00,
2013-11-24 23:35:00,39.0,36.9,30.19,SW,221,0.9,0.9,92,0.00,,,0.00,meteobridge,2013-11-25 07:35:00,
2013-11-24 23:40:00,39.0,36.9,30.19,SW,221,0.0,0.0,92,0.00,,,0.00,meteobridge,2013-11-25 07:40:00,
2013-11-24 23:45:00,38.8,36.7,30.19,SW,221,0.0,0.0,92,0.00,,,0.00,meteobridge,2013-11-25 07:45:00,
2013-11-24 23:50:00,38.8,36.7,30.19,SW,221,0.9,0.9,92,0.00,,,0.00,meteobridge,2013-11-25 07:50:00,
2013-11-24 23:55:00,39.0,36.9,30.19,SW,221,0.0,0.0,92,0.00,,,0.00,meteobridge,2013-11-25 07:55:00,